Flight Track Log - Related Links

Times and Time Zones

All times are in EDT time to prevent confusion due to time zone crossing. See the N531K flight status page for this flight to view local times or setup timezone preferences in your user account.

Time Position Orientation Groundspeed Altitude Reporting Facility
EDT Latitude Longitude Course Direction KTS MPH feet Rate Location/Type
Fri 12:55:14 PM 40.3092 -75.9778 237° Southwest 207 238 3,800  Level New York Center
Fri 12:56:14 PM 40.2800 -76.0275 232° Southwest 219 252 5,100 1,500 Climbing New York Center
Fri 12:57:14 PM 40.2414 -76.0978 234° Southwest 224 258 6,800 1,600 Climbing New York Center
Fri 12:58:14 PM 40.2136 -76.1556 238° Southwest 229 264 8,300 1,400 Climbing New York Center
Fri 12:59:00 PM 40.0999 -76.3169 237° Southwest  Level FlightAware Approximate
Fri 12:59:14 PM 40.1769 -76.2261 236° Southwest 229 264 9,600  Level New York Center
Fri 01:00:00 PM 40.0645 -76.3878 237° Southwest  Level FlightAware Approximate
Fri 01:00:14 PM 40.1403 -76.2992 237° Southwest 240 276 10,000  Level New York Center
Fri 01:01:14 PM 40.0942 -76.3906 237° Southwest 265 305 10,000  Level New York Center
Fri 01:02:14 PM 40.0569 -76.4744 240° Southwest 270 311 10,000  Level New York Center
Fri 01:03:14 PM 40.0156 -76.5550 236° Southwest 270 311 10,000  Level New York Center
Fri 01:05:14 PM 39.9500 -76.7000 240° Southwest 231 266 10,000  Level Potomac TRACON
Fri 01:06:14 PM 39.9167 -76.7667 237° Southwest 235 270 10,000  Level Potomac TRACON
Fri 01:07:14 PM 39.8833 -76.8500 242° Southwest 236 272 10,000  Level Potomac TRACON
Fri 01:08:14 PM 39.8333 -76.9167 226° Southwest 237 273 10,000  Level Potomac TRACON
Fri 01:09:14 PM 39.8000 -76.9833 237° Southwest 234 269 10,000  Level Potomac TRACON
Fri 01:10:14 PM 39.7667 -77.0500 237° Southwest 234 269 10,000  Level Potomac TRACON
Fri 01:11:14 PM 39.7333 -77.1333 243° Southwest 236 272 10,000 -550 Level Potomac TRACON
Fri 01:12:14 PM 39.7000 -77.2000 237° Southwest 227 261 8,900 -1,000 Descending Potomac TRACON
Fri 01:13:14 PM 39.6667 -77.2667 237° Southwest 238 274 8,000 -750 Descending Potomac TRACON
Fri 01:14:14 PM 39.6167 -77.3333 226° Southwest 254 292 7,400 -500 Descending Potomac TRACON
Fri 01:15:14 PM 39.5500 -77.3667 201° Southwest 249 287 7,000 -200 Descending Potomac TRACON
Fri 01:16:14 PM 39.4833 -77.3833 191° South 227 261 7,000 -694 Level Potomac TRACON
Fri 01:17:15 PM 39.4333 -77.4167 207° Southwest 226 260 5,600 -992 Descending Potomac TRACON
Fri 01:18:15 PM 39.3667 -77.4500 201° Southwest 212 244 5,000 -300 Descending Potomac TRACON
Fri 01:19:15 PM 39.3167 -77.4500 180° South 201 231 5,000  Level Potomac TRACON
Fri 01:20:15 PM 39.2500 -77.4500 180° South 205 236 5,000  Level Potomac TRACON
Fri 01:21:15 PM 39.2000 -77.4500 180° South 194 223 5,000 -550 Level Potomac TRACON
Fri 01:22:15 PM 39.1500 -77.4500 180° South 160 184 3,900 -950 Descending Potomac TRACON
Fri 01:23:15 PM 39.1167 -77.4500 180° South 152 175 3,100 -750 Descending Potomac TRACON
Fri 01:24:15 PM 39.0667 -77.4667 195° South 139 160 2,400 -700 Descending Potomac TRACON
Fri 01:25:15 PM 39.0333 -77.4667 180° South 125 144 1,700 -750 Descending Potomac TRACON
Fri 01:26:15 PM 39.0000 -77.4667 180° South 133 153 900 -800 Descending Potomac TRACON

Login

Don't have an account? Register now (free) for customized features, flight alerts, and more!